Time;durP1;ratioP1;P1;durP2;ratioP2;P2;SDS_P1;SDS_P2;PMS_P1;PMS_P2;Temp;Humidity;BMP_temperature;BMP_pressure;BME280_temperature;BME280_humidity;BME280_pressure;Samples;Min_cycle;Max_cycle;Signal;HPM_P1;HPM_P2
2021/01/10 00:00:11;;;;;;;21.67;13.50;;;;;;;-0.34;74.92;99229.97;5075437;28;20055;-62
2021/01/10 00:02:36;;;;;;;20.67;11.53;;;;;;;-0.39;75.20;99224.78;5074086;28;20055;-62
2021/01/10 00:05:04;;;;;;;21.13;13.47;;;;;;;-0.29;75.09;99233.47;5074776;28;20036;-62
2021/01/10 00:07:29;;;;;;;20.97;13.33;;;;;;;-0.22;74.17;99231.25;5074013;28;20036;-62
2021/01/10 00:09:55;;;;;;;20.47;11.63;;;;;;;-0.15;73.79;99228.09;5072482;28;20040;-62
2021/01/10 00:12:27;;;;;;;25.17;12.80;;;;;;;-0.08;73.57;99224.09;5074643;28;20020;-62
2021/01/10 00:14:53;;;;;;;22.70;12.67;;;;;;;-0.16;74.03;99233.06;5072226;28;20028;-62
2021/01/10 00:17:19;;;;;;;18.90;11.03;;;;;;;-0.22;74.10;99223.69;5075016;28;20062;-62
2021/01/10 00:19:46;;;;;;;17.50;10.67;;;;;;;-0.07;73.22;99223.31;5073266;28;20028;-62
2021/01/10 00:22:13;;;;;;;24.10;13.70;;;;;;;-0.14;73.59;99229.81;5074898;28;20025;-62
2021/01/10 00:24:42;;;;;;;20.37;12.67;;;;;;;-0.16;74.17;99226.38;5055201;28;20032;-62
2021/01/10 00:27:16;;;;;;;18.93;11.80;;;;;;;-0.16;74.39;99230.56;5073965;28;20056;-62
2021/01/10 00:29:47;;;;;;;18.67;10.33;;;;;;;-0.16;73.63;99231.41;5074022;28;20418;-62
2021/01/10 00:32:13;;;;;;;23.97;12.57;;;;;;;-0.23;74.06;99233.69;5072961;28;20035;-62
2021/01/10 00:34:39;;;;;;;17.13;10.87;;;;;;;-0.15;73.03;99235.66;5074911;28;20054;-62
2021/01/10 00:37:13;;;;;;;19.23;11.20;;;;;;;-0.24;74.02;99235.34;5073590;28;20426;-62
2021/01/10 00:39:40;;;;;;;17.53;10.83;;;;;;;-0.32;74.41;99235.91;5074994;28;20024;-63
2021/01/10 00:42:10;;;;;;;20.57;10.90;;;;;;;-0.26;74.19;99233.59;5071347;28;20025;-62
2021/01/10 00:44:36;;;;;;;19.70;11.30;;;;;;;-0.39;74.41;99242.41;5073520;28;20024;-63
2021/01/10 00:47:03;;;;;;;17.90;10.67;;;;;;;-0.36;74.65;99234.94;5073728;28;20032;-62
2021/01/10 00:49:28;;;;;;;19.97;11.97;;;;;;;-0.44;74.55;99243.06;5074846;28;20074;-62
2021/01/10 00:51:54;;;;;;;16.30;10.43;;;;;;;-0.49;74.34;99245.41;5072718;28;20536;-62
2021/01/10 00:54:20;;;;;;;17.57;12.07;;;;;;;-0.56;75.12;99238.47;5073748;28;20028;-62
2021/01/10 00:56:46;;;;;;;21.13;13.53;;;;;;;-0.62;75.28;99240.75;5074173;28;20043;-62
2021/01/10 00:59:12;;;;;;;18.30;11.23;;;;;;;-0.71;76.14;99243.81;5073416;28;20024;-63
2021/01/10 01:01:37;;;;;;;21.07;12.17;;;;;;;-0.75;75.86;99249.53;5070896;28;20051;-62
2021/01/10 01:04:03;;;;;;;17.40;10.17;;;;;;;-0.74;75.71;99246.22;5070141;28;20036;-62
2021/01/10 01:06:29;;;;;;;20.47;12.03;;;;;;;-0.80;75.37;99240.97;5070112;28;20357;-62
2021/01/10 01:08:54;;;;;;;16.47;11.00;;;;;;;-0.87;75.59;99248.25;5069306;28;20352;-62
2021/01/10 01:11:30;;;;;;;16.83;11.03;;;;;;;-0.92;75.92;99246.41;5069455;28;20032;-62
2021/01/10 01:13:56;;;;;;;19.60;10.30;;;;;;;-1.01;76.15;99240.19;5070898;28;20033;-62
2021/01/10 01:16:22;;;;;;;18.23;10.67;;;;;;;-1.07;76.22;99237.47;5071125;28;20032;-62
2021/01/10 01:18:47;;;;;;;17.47;10.83;;;;;;;-1.07;76.29;99247.53;5069906;28;20039;-63
2021/01/10 01:21:20;;;;;;;16.20;9.53;;;;;;;-0.92;75.70;99243.03;5069997;28;20034;-62
2021/01/10 01:23:46;;;;;;;17.50;10.70;;;;;;;-1.01;76.01;99240.19;5068495;28;20043;-62
2021/01/10 01:26:15;;;;;;;16.10;9.90;;;;;;;-1.01;76.02;99243.56;5070366;28;20063;-62
2021/01/10 01:28:43;;;;;;;17.23;9.83;;;;;;;-1.07;75.91;99240.84;5069318;28;20034;-62
2021/01/10 01:31:10;;;;;;;16.97;10.40;;;;;;;-1.06;75.67;99250.09;5070150;28;20038;-62
2021/01/10 01:33:36;;;;;;;15.43;9.67;;;;;;;-1.06;75.39;99247.56;5069003;28;20021;-62
2021/01/10 01:36:01;;;;;;;15.90;9.67;;;;;;;-1.12;75.56;99244.00;5071837;28;20055;-62
2021/01/10 01:38:27;;;;;;;18.73;10.23;;;;;;;-1.11;75.52;99244.06;5072968;28;20178;-62
2021/01/10 01:41:02;;;;;;;19.57;10.97;;;;;;;-0.99;75.31;99248.66;5073090;28;20028;-62
2021/01/10 01:43:28;;;;;;;19.73;11.73;;;;;;;-1.21;75.58;99244.50;5073294;28;20017;-62
2021/01/10 01:45:53;;;;;;;15.67;9.10;;;;;;;-1.19;75.66;99242.06;5075205;28;20046;-62
2021/01/10 01:48:20;;;;;;;16.93;10.27;;;;;;;-1.26;76.02;99233.41;5076505;28;20107;-62
2021/01/10 01:50:45;;;;;;;17.20;10.30;;;;;;;-1.38;76.27;99240.50;5076995;28;20032;-62
2021/01/10 01:53:11;;;;;;;15.13;9.50;;;;;;;-1.47;76.98;99241.00;5077067;28;20032;-62
2021/01/10 01:55:36;;;;;;;20.73;11.73;;;;;;;-1.49;77.25;99241.75;5075971;28;20038;-62
2021/01/10 01:58:05;;;;;;;18.53;12.03;;;;;;;-1.50;77.20;99238.38;5075591;28;20368;-62
2021/01/10 02:00:31;;;;;;;20.77;11.90;;;;;;;-1.51;77.48;99240.84;5076501;28;20107;-62
2021/01/10 02:02:57;;;;;;;20.63;12.33;;;;;;;-1.61;77.77;99236.28;5075822;28;20020;-62
2021/01/10 02:05:26;;;;;;;17.47;10.27;;;;;;;-1.56;77.58;99234.78;5077286;28;20048;-62
2021/01/10 02:08:00;;;;;;;18.17;10.57;;;;;;;-1.60;77.56;99235.44;5075437;28;20073;-62
2021/01/10 02:10:29;;;;;;;18.33;11.03;;;;;;;-1.61;77.68;99232.06;5076851;28;20090;-62
2021/01/10 02:12:59;;;;;;;17.87;10.77;;;;;;;-1.73;77.89;99233.25;5075607;28;20035;-62
2021/01/10 02:15:27;;;;;;;19.20;11.60;;;;;;;-1.77;78.53;99236.44;5076122;28;20438;-62
2021/01/10 02:17:56;;;;;;;19.33;11.47;;;;;;;-1.83;78.49;99239.59;5072795;28;20032;-62
2021/01/10 02:20:28;;;;;;;19.53;11.37;;;;;;;-1.94;78.69;99238.31;5064209;28;20048;-62
2021/01/10 02:23:17;;;;;;;18.13;10.57;;;;;;;-1.90;79.12;99233.47;5055912;28;20074;-62
2021/01/10 02:25:44;;;;;;;19.47;11.07;;;;;;;-1.88;78.94;99233.53;5067521;28;20028;-62
2021/01/10 02:28:10;;;;;;;19.97;11.30;;;;;;;-1.77;77.75;99238.97;5076497;28;20099;-63
2021/01/10 02:30:41;;;;;;;18.70;10.40;;;;;;;-1.75;77.96;99234.88;5075471;28;20115;-62
2021/01/10 02:33:18;;;;;;;17.73;10.83;;;;;;;-1.78;78.36;99240.63;5076016;28;20032;-62
2021/01/10 02:35:44;;;;;;;20.00;11.37;;;;;;;-1.94;78.70;99238.31;5075377;28;20032;-62
2021/01/10 02:38:24;;;;;;;22.60;12.30;;;;;;;-1.98;78.93;99246.50;5076189;28;20048;-62
2021/01/10 02:41:04;;;;;;;19.67;11.03;;;;;;;-2.03;78.97;99246.34;5075488;28;20416;-62
2021/01/10 02:43:33;;;;;;;21.10;11.80;;;;;;;-2.08;78.95;99244.44;5075948;28;20058;-62
2021/01/10 02:46:02;;;;;;;17.93;10.70;;;;;;;-2.17;79.24;99241.56;5073719;28;20081;-62
2021/01/10 02:48:28;;;;;;;18.27;10.70;;;;;;;-2.23;79.72;99254.72;5076008;28;20024;-62
2021/01/10 02:50:53;;;;;;;22.33;12.53;;;;;;;-2.35;79.67;99256.72;5075455;28;20024;-62
2021/01/10 02:53:19;;;;;;;20.10;12.63;;;;;;;-2.43;80.11;99258.94;5075738;28;20032;-62
2021/01/10 02:55:44;;;;;;;19.30;10.63;;;;;;;-2.41;80.29;99257.31;5074626;28;20024;-62
2021/01/10 02:58:19;;;;;;;21.07;11.97;;;;;;;-2.35;80.35;99256.72;5075422;28;20029;-62
2021/01/10 03:00:46;;;;;;;20.38;10.68;;;;;;;-2.43;80.43;99261.44;5074966;28;20450;-62
2021/01/10 03:03:13;;;;;;;22.90;12.23;;;;;;;-2.48;80.89;99264.53;5075510;28;20025;-62
2021/01/10 03:05:38;;;;;;;19.77;11.80;;;;;;;-2.53;80.54;99256.81;5074899;28;20024;-62
2021/01/10 03:08:05;;;;;;;21.13;11.37;;;;;;;-2.55;80.89;99260.06;5073998;28;20054;-62
2021/01/10 03:10:31;;;;;;;22.67;12.73;;;;;;;-2.57;81.02;99259.97;5075852;28;20115;-62
2021/01/10 03:12:56;;;;;;;19.43;11.23;;;;;;;-2.61;81.32;99257.28;5074711;28;20103;-62
2021/01/10 03:15:22;;;;;;;19.93;11.90;;;;;;;-2.64;81.60;99253.00;5072927;28;20037;-62
2021/01/10 03:17:49;;;;;;;19.90;11.27;;;;;;;-2.61;81.31;99257.28;5074606;28;20039;-62
2021/01/10 03:20:20;;;;;;;25.97;13.13;;;;;;;-2.62;81.32;99253.91;5074187;28;20107;-62
2021/01/10 03:22:47;;;;;;;22.77;12.40;;;;;;;-2.67;81.53;99262.06;5074793;28;20043;-62
2021/01/10 03:25:23;;;;;;;20.33;12.20;;;;;;;-2.64;81.88;99258.00;5074318;28;20119;-62
2021/01/10 03:27:49;;;;;;;21.27;12.07;;;;;;;-2.69;81.73;99261.97;5074801;28;20020;-62
2021/01/10 03:30:17;;;;;;;17.30;10.30;;;;;;;-2.67;81.66;99262.88;5074432;28;20104;-62
2021/01/10 03:32:43;;;;;;;20.97;12.07;;;;;;;-2.71;81.72;99262.69;5074338;28;20032;-62
2021/01/10 03:35:09;;;;;;;23.87;11.93;;;;;;;-2.74;81.75;99258.41;5074041;28;20020;-62
2021/01/10 03:37:38;;;;;;;19.03;11.30;;;;;;;-2.70;81.69;99259.38;5074632;28;20518;-62
2021/01/10 03:40:06;;;;;;;22.90;11.73;;;;;;;-2.66;82.04;99258.72;5073940;28;20441;-62
2021/01/10 03:42:32;;;;;;;21.77;12.00;;;;;;;-2.69;81.50;99254.44;5074303;28;20041;-62
2021/01/10 03:44:57;;;;;;;19.87;11.90;;;;;;;-2.67;81.53;99254.53;5072992;28;20027;-62
2021/01/10 03:47:22;;;;;;;20.17;11.90;;;;;;;-2.67;81.44;99259.53;5074585;28;20039;-62
2021/01/10 03:49:48;;;;;;;19.57;11.17;;;;;;;-2.69;81.60;99256.94;5073515;28;20032;-62
2021/01/10 03:52:14;;;;;;;19.87;11.17;;;;;;;-2.69;81.80;99253.59;5074459;28;20107;-62
2021/01/10 03:54:39;;;;;;;24.83;12.60;;;;;;;-2.69;81.67;99258.59;5072920;28;20039;-62
2021/01/10 03:57:04;;;;;;;19.27;11.77;;;;;;;-2.72;81.93;99248.44;5073158;28;20060;-62
2021/01/10 03:59:30;;;;;;;20.73;13.53;;;;;;;-2.70;81.73;99260.25;5072535;28;20032;-62
2021/01/10 04:01:55;;;;;;;24.17;14.13;;;;;;;-2.68;81.60;99252.78;5074359;28;20437;-62
2021/01/10 04:04:20;;;;;;;18.47;11.50;;;;;;;-2.64;81.87;99249.63;5073325;28;20043;-62
2021/01/10 04:06:46;;;;;;;23.13;11.90;;;;;;;-2.66;81.89;99252.06;5074520;28;20437;-62
2021/01/10 04:09:11;;;;;;;21.80;11.83;;;;;;;-2.65;81.95;99246.25;5073443;28;20028;-62
2021/01/10 04:11:37;;;;;;;21.37;12.33;;;;;;;-2.63;81.64;99252.19;5074317;28;20029;-62
2021/01/10 04:14:02;;;;;;;19.47;10.87;;;;;;;-2.61;81.52;99248.09;5072773;28;20024;-62
2021/01/10 04:16:28;;;;;;;18.57;12.37;;;;;;;-2.54;81.33;99241.69;5074133;28;20040;-62
2021/01/10 04:18:54;;;;;;;22.37;12.00;;;;;;;-2.60;81.44;99249.81;5073439;28;20028;-62
2021/01/10 04:21:19;;;;;;;21.40;13.60;;;;;;;-2.59;81.85;99243.16;5073707;28;20456;-63
2021/01/10 04:23:45;;;;;;;25.67;12.40;;;;;;;-2.47;81.26;99246.19;5071853;28;20100;-62
2021/01/10 04:26:10;;;;;;;22.00;12.60;;;;;;;-2.56;80.92;99245.78;5074123;28;20055;-62
2021/01/10 04:28:35;;;;;;;21.90;12.03;;;;;;;-2.56;80.80;99239.13;5073349;28;20024;-63
2021/01/10 04:31:01;;;;;;;23.13;12.53;;;;;;;-2.54;80.60;99247.56;5073902;28;20032;-63
2021/01/10 04:33:27;;;;;;;21.30;12.40;;;;;;;-2.58;81.20;99242.34;5073284;28;20035;-62
2021/01/10 04:35:54;;;;;;;22.70;12.37;;;;;;;-2.45;80.04;99247.94;5073513;28;20453;-62
2021/01/10 04:38:19;;;;;;;26.83;14.50;;;;;;;-2.44;79.53;99238.75;5073665;28;20020;-62
2021/01/10 04:40:45;;;;;;;22.23;12.43;;;;;;;-2.44;79.57;99241.28;5073418;28;20040;-61
2021/01/10 04:43:11;;;;;;;23.03;13.17;;;;;;;-2.35;79.41;99245.03;5073591;28;20040;-62
2021/01/10 04:45:37;;;;;;;23.23;12.17;;;;;;;-2.33;79.21;99247.59;5073207;28;20035;-61
2021/01/10 04:48:04;;;;;;;20.83;12.07;;;;;;;-2.36;79.35;99249.97;5074131;28;20021;-62
2021/01/10 04:50:33;;;;;;;21.30;11.80;;;;;;;-2.39;80.26;99249.88;5072935;28;20028;-62
2021/01/10 04:52:58;;;;;;;20.50;11.90;;;;;;;-2.38;79.91;99261.63;5074032;28;20033;-62
2021/01/10 04:55:24;;;;;;;19.80;11.20;;;;;;;-2.37;80.14;99259.16;5072056;28;20108;-62
2021/01/10 04:58:01;;;;;;;23.53;10.80;;;;;;;-2.31;80.46;99259.44;5073401;28;20040;-62
2021/01/10 05:00:27;;;;;;;19.20;12.53;;;;;;;-2.31;80.42;99258.56;5072698;28;20101;-62
2021/01/10 05:03:01;;;;;;;20.30;11.40;;;;;;;-2.31;79.90;99263.59;5072633;28;20020;-62
2021/01/10 05:05:27;;;;;;;21.43;10.57;;;;;;;-2.30;80.11;99260.28;5072847;28;20128;-62
2021/01/10 05:07:53;;;;;;;21.10;11.47;;;;;;;-2.25;79.98;99268.00;5072948;28;20099;-62
2021/01/10 05:10:18;;;;;;;20.20;11.53;;;;;;;-2.14;79.14;99270.16;5075355;28;20349;-62
2021/01/10 05:12:44;;;;;;;19.50;10.67;;;;;;;-2.06;78.59;99263.81;5075711;28;20032;-62
2021/01/10 05:15:10;;;;;;;21.93;11.43;;;;;;;-2.05;78.59;99267.19;5077357;28;20032;-62
2021/01/10 05:17:36;;;;;;;18.20;11.00;;;;;;;-2.07;78.58;99264.59;5077020;28;20101;-62
2021/01/10 05:20:07;;;;;;;21.90;11.43;;;;;;;-2.03;78.77;99275.63;5076060;28;20395;-62
2021/01/10 05:22:32;;;;;;;19.13;11.30;;;;;;;-2.11;79.29;99280.31;5076993;28;20034;-62
2021/01/10 05:25:13;;;;;;;20.87;12.30;;;;;;;-2.04;79.20;99273.91;5075397;28;20103;-62
2021/01/10 05:27:39;;;;;;;18.37;11.77;;;;;;;-2.12;79.83;99281.13;5073900;28;20096;-62
2021/01/10 05:30:06;;;;;;;19.87;11.20;;;;;;;-2.11;79.15;99285.34;5076188;28;20020;-62
2021/01/10 05:32:31;;;;;;;17.17;11.17;;;;;;;-2.07;79.24;99283.81;5075230;28;20024;-62
2021/01/10 05:35:00;;;;;;;18.30;10.20;;;;;;;-1.95;79.01;99276.78;5076400;28;20459;-61
2021/01/10 05:37:26;;;;;;;18.80;9.93;;;;;;;-1.94;78.66;99276.84;5075928;28;20060;-62
2021/01/10 05:39:52;;;;;;;17.93;10.60;;;;;;;-1.86;77.91;99270.47;5076950;28;20055;-62
2021/01/10 05:42:18;;;;;;;17.37;10.33;;;;;;;-1.77;78.04;99276.66;5075829;28;20028;-62
2021/01/10 05:44:43;;;;;;;20.00;11.10;;;;;;;-1.74;77.26;99266.75;5076438;28;20112;-62
2021/01/10 05:47:11;;;;;;;19.67;10.73;;;;;;;-1.76;77.41;99268.34;5073552;28;20422;-62
2021/01/10 05:49:52;;;;;;;18.77;11.23;;;;;;;-1.75;77.93;99272.56;5074935;28;20061;-62
2021/01/10 05:52:19;;;;;;;21.77;11.30;;;;;;;-1.91;78.52;99276.97;5073838;28;20512;-62
2021/01/10 05:54:46;;;;;;;16.10;10.03;;;;;;;-1.90;78.43;99286.22;5071562;28;20037;-62
2021/01/10 05:57:14;;;;;;;18.07;10.50;;;;;;;-1.92;78.77;99286.97;5071584;28;20406;-62
2021/01/10 05:59:45;;;;;;;18.90;11.80;;;;;;;-1.87;78.64;99278.81;5077099;28;20032;-62
2021/01/10 06:02:10;;;;;;;19.03;10.70;;;;;;;-1.92;78.34;99277.78;5075833;28;20036;-62
2021/01/10 06:04:36;;;;;;;19.63;11.53;;;;;;;-1.93;78.85;99286.09;5074820;28;20024;-62
2021/01/10 06:07:02;;;;;;;19.37;12.17;;;;;;;-1.85;78.45;99283.91;5075793;28;20036;-62
2021/01/10 06:09:27;;;;;;;21.23;10.77;;;;;;;-1.82;78.40;99290.72;5075713;28;20024;-62
2021/01/10 06:11:53;;;;;;;19.97;10.70;;;;;;;-1.82;78.63;99293.22;5076272;28;20040;-61
2021/01/10 06:14:23;;;;;;;18.73;10.87;;;;;;;-1.86;79.10;99295.59;5075152;28;20020;-61
2021/01/10 06:16:56;;;;;;;18.20;10.93;;;;;;;-1.86;78.85;99295.59;5075141;28;20452;-61
2021/01/10 06:19:29;;;;;;;17.10;10.20;;;;;;;-1.84;78.73;99298.19;5074830;28;20477;-61
2021/01/10 06:22:02;;;;;;;19.13;11.60;;;;;;;-1.79;78.58;99298.38;5075126;28;20107;-62
2021/01/10 06:24:35;;;;;;;18.60;11.47;;;;;;;-1.78;78.15;99298.41;5074547;28;20032;-61
2021/01/10 06:27:06;;;;;;;17.60;11.07;;;;;;;-1.70;78.21;99296.22;5076158;28;20032;-61
2021/01/10 06:29:39;;;;;;;20.97;11.37;;;;;;;-1.71;78.30;99302.91;5075818;28;20020;-62
2021/01/10 06:32:15;;;;;;;20.10;12.37;;;;;;;-1.72;78.15;99298.66;5075698;28;20032;-61
2021/01/10 06:34:42;;;;;;;20.60;11.40;;;;;;;-1.68;78.02;99305.53;5076073;28;20032;-61
2021/01/10 06:37:09;;;;;;;17.83;10.90;;;;;;;-1.57;76.77;99321.06;5074261;28;20083;-61
2021/01/10 06:39:39;;;;;;;17.13;9.93;;;;;;;-1.53;77.11;99321.22;5075528;28;20040;-62
2021/01/10 06:42:07;;;;;;;17.73;11.37;;;;;;;-1.55;77.16;99319.44;5075547;28;20115;-61
2021/01/10 06:44:35;;;;;;;16.60;9.37;;;;;;;-1.55;77.18;99321.97;5074623;28;20403;-61
2021/01/10 06:47:01;;;;;;;17.27;10.20;;;;;;;-1.56;77.11;99327.78;5074755;28;20024;-61
2021/01/10 06:49:26;;;;;;;18.67;9.80;;;;;;;-1.55;77.04;99327.00;5074766;28;20035;-61
2021/01/10 06:51:56;;;;;;;16.43;10.00;;;;;;;-1.45;76.94;99337.47;5074393;28;20404;-61
2021/01/10 06:54:21;;;;;;;17.07;10.27;;;;;;;-1.49;76.74;99338.16;5074968;28;20055;-62
2021/01/10 06:56:54;;;;;;;14.07;9.13;;;;;;;-1.43;76.39;99337.53;5074537;28;20024;-62
2021/01/10 06:59:26;;;;;;;15.70;9.43;;;;;;;-1.36;76.26;99344.53;5075418;28;20064;-61
2021/01/10 07:01:52;;;;;;;20.37;11.80;;;;;;;-1.36;75.89;99338.63;5074736;28;20353;-62
2021/01/10 07:04:21;;;;;;;18.97;11.03;;;;;;;-1.24;75.54;99339.13;5075554;28;20029;-62
2021/01/10 07:06:51;;;;;;;21.40;11.77;;;;;;;-1.28;75.96;99342.31;5074356;28;20043;-62
2021/01/10 07:09:18;;;;;;;18.47;11.40;;;;;;;-1.30;76.21;99336.34;5075606;28;20039;-62
2021/01/10 07:11:45;;;;;;;20.03;11.67;;;;;;;-1.32;76.19;99328.75;5074279;28;20031;-62
2021/01/10 07:14:13;;;;;;;17.90;10.33;;;;;;;-1.25;76.00;99342.41;5074271;28;20461;-62
2021/01/10 07:16:40;;;;;;;19.50;10.73;;;;;;;-1.27;76.74;99341.53;5073260;28;20028;-62
2021/01/10 07:19:07;;;;;;;21.83;13.37;;;;;;;-1.20;76.85;99348.50;5075657;28;20024;-62
2021/01/10 07:21:44;;;;;;;23.77;14.30;;;;;;;-1.25;76.82;99340.75;5074091;28;20397;-61
2021/01/10 07:24:12;;;;;;;17.63;11.30;;;;;;;-1.20;76.40;99341.81;5055878;28;20119;-61
2021/01/10 07:26:41;;;;;;;17.67;11.00;;;;;;;-1.15;76.09;99340.34;5054019;28;20029;-61
2021/01/10 07:29:44;;;;;;;17.07;9.97;;;;;;;-1.09;75.70;99333.00;5074216;28;20449;-61
2021/01/10 07:32:20;;;;;;;19.87;11.27;;;;;;;-1.22;76.19;99328.31;5073589;28;20024;-61
2021/01/10 07:34:45;;;;;;;16.63;10.30;;;;;;;-1.39;76.82;99327.66;5074257;28;20017;-62
2021/01/10 07:37:23;;;;;;;18.93;10.30;;;;;;;-1.19;76.68;99325.06;5072220;28;20044;-62
2021/01/10 07:40:22;;;;;;;16.17;8.97;;;;;;;-1.20;76.83;99336.78;5074842;28;20040;-62
2021/01/10 07:42:59;;;;;;;17.23;9.67;;;;;;;-1.23;77.34;99329.09;5073357;28;20033;-61
2021/01/10 07:45:37;;;;;;;17.07;10.50;;;;;;;-1.16;76.99;99322.66;5074386;28;20028;-62
2021/01/10 07:48:04;;;;;;;21.07;11.27;;;;;;;-1.15;76.75;99327.75;5074000;28;20024;-62
2021/01/10 07:50:29;;;;;;;14.90;8.93;;;;;;;-1.12;76.02;99322.84;5074713;28;20025;-61
2021/01/10 07:52:56;;;;;;;13.07;7.80;;;;;;;-1.04;75.44;99329.00;5073329;28;20426;-61
2021/01/10 07:55:24;;;;;;;15.00;8.83;;;;;;;-0.95;75.53;99334.38;5073732;28;20027;-62
2021/01/10 07:58:02;;;;;;;15.80;8.87;;;;;;;-0.95;75.59;99334.38;5073085;28;20060;-62
2021/01/10 08:00:32;;;;;;;17.57;9.13;;;;;;;-0.77;74.63;99329.19;5054939;28;20354;-62
2021/01/10 08:03:08;;;;;;;13.37;8.23;;;;;;;-0.81;74.69;99322.31;5062636;28;20028;-62
2021/01/10 08:05:36;;;;;;;16.17;9.67;;;;;;;-0.77;74.54;99323.28;5054638;28;20028;-61
2021/01/10 08:08:13;;;;;;;13.23;7.77;;;;;;;-0.66;73.63;99322.00;5053756;28;20043;-61
2021/01/10 08:10:54;;;;;;;15.10;8.17;;;;;;;-0.54;73.39;99327.47;5054545;28;20031;-62
2021/01/10 08:13:29;;;;;;;13.83;8.10;;;;;;;-0.47;73.51;99327.75;5054012;28;20045;-62
2021/01/10 08:15:56;;;;;;;13.87;8.67;;;;;;;-0.44;73.78;99333.72;5072472;28;20406;-62
2021/01/10 08:18:23;;;;;;;20.47;11.03;;;;;;;-0.32;73.95;99339.19;5071435;28;20029;-62
2021/01/10 08:20:53;;;;;;;21.43;12.03;;;;;;;-0.20;73.58;99337.09;5060208;28;20077;-62
2021/01/10 08:23:19;;;;;;;17.97;10.43;;;;;;;-0.13;73.10;99344.91;5068366;28;20055;-62
2021/01/10 08:25:46;;;;;;;15.93;9.23;;;;;;;-0.04;72.63;99346.88;5069578;28;20358;-62
2021/01/10 08:28:16;;;;;;;16.33;9.73;;;;;;;0.07;72.13;99345.59;5064320;28;20016;-62
2021/01/10 08:30:43;;;;;;;23.23;12.17;;;;;;;0.05;72.07;99353.91;5070401;28;21773;-62
2021/01/10 08:33:08;;;;;;;25.83;15.20;;;;;;;0.16;71.76;99355.13;5069068;28;20078;-62
2021/01/10 08:35:33;;;;;;;21.80;12.83;;;;;;;0.13;71.95;99360.91;5069936;28;20028;-61
2021/01/10 08:37:59;;;;;;;19.10;11.57;;;;;;;0.18;71.20;99356.88;5069393;28;20515;-62
2021/01/10 08:40:24;;;;;;;16.57;9.80;;;;;;;0.16;70.47;99358.50;5070167;28;20043;-62
2021/01/10 08:43:00;;;;;;;15.47;9.03;;;;;;;0.19;71.18;99360.25;5069268;28;20133;-62
2021/01/10 08:45:25;;;;;;;;;;;;;;;0.27;70.56;99361.38;5069292;28;20044;-62
2021/01/10 08:47:51;;;;;;;19.53;9.93;;;;;;;0.21;70.69;99358.66;5072530;28;20036;-62
2021/01/10 08:50:16;;;;;;;19.07;10.67;;;;;;;0.28;70.95;99358.91;5071527;28;20051;-63
2021/01/10 08:52:55;;;;;;;25.93;13.93;;;;;;;0.29;70.51;99362.31;5069705;28;20530;-62
2021/01/10 08:55:39;;;;;;;24.23;13.83;;;;;;;0.38;70.51;99370.19;5072640;28;20034;-62
2021/01/10 08:58:07;;;;;;;17.80;11.13;;;;;;;0.40;70.17;99371.06;5070424;28;20024;-62
2021/01/10 09:00:34;;;;;;;20.13;12.17;;;;;;;0.31;70.09;99368.25;5072799;28;20050;-62
2021/01/10 09:03:16;;;;;;;20.47;12.13;;;;;;;0.34;69.84;99371.72;5073014;28;20187;-63
2021/01/10 09:05:47;;;;;;;29.83;16.83;;;;;;;0.36;69.72;99372.63;5071797;28;20021;-62
2021/01/10 09:08:22;;;;;;;27.27;14.30;;;;;;;0.52;69.63;99376.50;5072872;28;20021;-61
2021/01/10 09:10:55;;;;;;;23.60;12.30;;;;;;;0.64;69.12;99374.38;5070527;28;20017;-61
2021/01/10 09:13:23;;;;;;;22.20;13.87;;;;;;;0.70;68.81;99388.88;5071633;28;20109;-61
2021/01/10 09:15:54;;;;;;;17.70;11.33;;;;;;;0.80;68.46;99389.22;5070497;28;20020;-61
2021/01/10 09:18:21;;;;;;;15.50;9.83;;;;;;;0.74;67.33;99389.00;5072757;28;20028;-61
2021/01/10 09:21:04;;;;;;;20.37;11.43;;;;;;;0.80;67.48;99389.22;5071248;28;20063;-62
2021/01/10 09:23:30;;;;;;;17.10;11.00;;;;;;;0.75;67.44;99380.63;5071666;28;20043;-62
2021/01/10 09:25:55;;;;;;;23.77;12.33;;;;;;;0.71;67.36;99383.88;5072000;28;20464;-61
2021/01/10 09:28:22;;;;;;;21.40;11.30;;;;;;;0.86;67.10;99393.56;5074448;28;20021;-61
2021/01/10 09:30:57;;;;;;;18.27;10.83;;;;;;;0.99;66.64;99400.72;5071563;28;20446;-61
2021/01/10 09:33:24;;;;;;;19.27;10.87;;;;;;;0.93;67.09;99394.66;5073945;28;20024;-62
2021/01/10 09:35:51;;;;;;;18.30;9.93;;;;;;;0.83;66.33;99385.91;5071430;28;20086;-62
2021/01/10 09:38:20;;;;;;;15.63;9.63;;;;;;;0.81;67.41;99403.53;5073661;28;20457;-62
2021/01/10 09:41:09;;;;;;;22.33;12.53;;;;;;;0.47;68.00;99410.81;5072501;28;20060;-62
2021/01/10 09:43:34;;;;;;;17.37;10.57;;;;;;;0.15;68.40;99421.47;5054118;28;20025;-61
2021/01/10 09:46:00;;;;;;;19.07;11.23;;;;;;;0.29;68.77;99415.25;5070562;28;20464;-62
2021/01/10 09:48:26;;;;;;;55.43;29.77;;;;;;;0.40;68.83;99411.41;5067701;28;20434;-61
2021/01/10 09:50:51;;;;;;;25.97;13.07;;;;;;;0.16;68.73;99406.41;5072280;28;20030;-61
2021/01/10 09:53:24;;;;;;;18.07;10.67;;;;;;;0.31;68.32;99409.44;5072939;28;20029;-62
2021/01/10 09:55:50;;;;;;;21.40;13.07;;;;;;;0.35;68.68;99402.84;5073577;28;20029;-62
2021/01/10 09:58:15;;;;;;;18.00;11.57;;;;;;;0.45;67.35;99397.31;5076810;28;20111;-61
2021/01/10 10:01:08;;;;;;;15.80;9.53;;;;;;;0.26;68.31;99387.38;5077349;28;20024;-62
2021/01/10 10:03:36;;;;;;;21.77;12.00;;;;;;;0.27;68.72;99391.63;5074270;28;20033;-62
2021/01/10 10:06:01;;;;;;;17.17;10.30;;;;;;;0.47;68.20;99384.75;5073879;28;20116;-61
2021/01/10 10:08:26;;;;;;;22.70;11.97;;;;;;;0.51;68.12;99384.03;5077687;28;20402;-62
2021/01/10 10:10:52;;;;;;;18.63;10.90;;;;;;;0.43;67.91;99381.25;5075469;28;20386;-61
2021/01/10 10:13:27;;;;;;;19.87;10.87;;;;;;;0.69;67.89;99374.53;5075038;28;20029;-62
2021/01/10 10:15:54;;;;;;;21.65;10.80;;;;;;;0.63;68.30;99379.41;5074875;28;20103;-62
2021/01/10 10:18:26;;;;;;;19.53;11.23;;;;;;;0.65;67.98;99383.66;5076012;28;20102;-62
2021/01/10 10:20:51;;;;;;;20.93;11.20;;;;;;;0.74;68.58;99378.06;5075652;28;20465;-62
2021/01/10 10:23:18;;;;;;;24.60;13.20;;;;;;;0.96;68.28;99374.53;5076329;28;20089;-62
2021/01/10 10:25:45;;;;;;;21.77;13.63;;;;;;;1.04;68.02;99373.97;5075147;28;20465;-62
2021/01/10 10:28:11;;;;;;;23.43;13.70;;;;;;;0.87;68.54;99370.06;5075730;28;20024;-62
2021/01/10 10:30:37;;;;;;;23.27;12.97;;;;;;;0.93;67.80;99367.75;5075446;28;20078;-61
2021/01/10 10:33:04;;;;;;;23.30;13.37;;;;;;;1.10;67.82;99365.72;5074389;28;20468;-61
2021/01/10 10:35:30;;;;;;;22.27;13.43;;;;;;;1.04;67.78;99358.81;5075972;28;20114;-62
2021/01/10 10:37:56;;;;;;;23.93;13.00;;;;;;;1.15;67.41;99356.59;5074278;28;20048;-61
2021/01/10 10:40:21;;;;;;;25.10;13.20;;;;;;;1.13;67.60;99349.00;5076350;28;20024;-61
2021/01/10 10:42:47;;;;;;;21.57;13.70;;;;;;;1.01;68.25;99352.81;5074258;28;20455;-61
2021/01/10 10:45:14;;;;;;;24.10;13.90;;;;;;;1.01;68.37;99350.31;5076220;28;20037;-61
2021/01/10 10:47:40;;;;;;;25.53;13.57;;;;;;;1.10;68.18;99348.06;5074181;28;20154;-61
2021/01/10 10:50:07;;;;;;;25.33;13.67;;;;;;;1.09;67.45;99339.63;5076016;28;20033;-61
2021/01/10 10:52:33;;;;;;;25.10;13.70;;;;;;;0.81;68.74;99337.91;5073298;28;20150;-61
2021/01/10 10:54:58;;;;;;;20.67;11.83;;;;;;;0.67;68.90;99330.75;5075743;28;20099;-61
2021/01/10 10:57:24;;;;;;;24.37;13.70;;;;;;;0.65;69.44;99320.59;5074221;28;20017;-61
2021/01/10 10:59:49;;;;;;;24.80;15.07;;;;;;;0.97;68.41;99313.16;5074610;28;20111;-61
2021/01/10 11:02:15;;;;;;;23.87;16.53;;;;;;;0.95;69.08;99318.16;5073170;28;20032;-62
2021/01/10 11:04:42;;;;;;;24.73;13.60;;;;;;;1.03;68.23;99309.13;5074193;28;20024;-62
2021/01/10 11:07:09;;;;;;;22.30;13.43;;;;;;;0.95;68.69;99307.19;5073851;28;20381;-62
2021/01/10 11:09:34;;;;;;;25.37;14.07;;;;;;;1.07;68.25;99297.44;5073110;28;20020;-62
2021/01/10 11:12:00;;;;;;;20.77;12.63;;;;;;;1.07;68.04;99293.25;5074829;28;20039;-61
2021/01/10 11:14:25;;;;;;;24.80;13.43;;;;;;;0.96;68.34;99291.25;5074337;28;20074;-62
2021/01/10 11:16:52;;;;;;;21.53;13.17;;;;;;;1.09;67.66;99281.56;5074422;28;20341;-61
2021/01/10 11:19:19;;;;;;;23.77;13.03;;;;;;;1.13;67.74;99290.06;5074361;28;20334;-62
2021/01/10 11:21:47;;;;;;;21.80;13.00;;;;;;;1.40;67.62;99290.81;5074651;28;20330;-63
2021/01/10 11:24:13;;;;;;;23.40;13.70;;;;;;;1.64;66.97;99283.94;5073731;28;20464;-62
2021/01/10 11:26:40;;;;;;;24.60;14.67;;;;;;;1.77;65.96;99288.50;5074820;28;20025;-63